Time;durP1;ratioP1;P1;durP2;ratioP2;P2;SDS_P1;SDS_P2;PMS_P1;PMS_P2;Temp;Humidity;BMP_temperature;BMP_pressure;BME280_temperature;BME280_humidity;BME280_pressure;Samples;Min_cycle;Max_cycle;Signal;HPM_P1;HPM_P2
2021/12/30 00:01:49;;;;;;;;;;;;;;;;;;5091800;28;19925;-70
2021/12/30 00:04:24;;;;;;;;;;;;;;;;;;5083314;28;20373;-69
2021/12/30 00:06:54;;;;;;;;;;;;;;;;;;5075172;28;19931;-70
2021/12/30 00:09:28;;;;;;;;;;;;;;;;;;5097170;28;20019;-70
2021/12/30 00:12:07;;;;;;;;;;;;;;;;;;5092926;28;20401;-70
2021/12/30 00:14:41;;;;;;;;;;;;;;;;;;5097663;28;20338;-70
2021/12/30 00:17:09;;;;;;;;;;;;;;;;;;5095335;28;19991;-70
2021/12/30 00:19:38;;;;;;;;;;;;;;;;;;5098837;28;20065;-70
2021/12/30 00:22:10;;;;;;;;;;;;;;;;;;5097653;28;19983;-70
2021/12/30 00:24:43;;;;;;;;;;;;;;;;;;5091886;28;20012;-70
2021/12/30 00:27:13;;;;;;;;;;;;;;;;;;5095162;28;20320;-70
2021/12/30 00:29:42;;;;;;;;;;;;;;;;;;5091904;28;19924;-70
2021/12/30 00:32:10;;;;;;;;;;;;;;;;;;5083000;28;20049;-70
2021/12/30 00:34:43;;;;;;;;;;;;;;;;;;5091443;28;19932;-71
2021/12/30 00:37:10;;;;;;;;;;;;;;;;;;5103388;28;19935;-70
2021/12/30 00:39:51;;;;;;;;;;;;;;;;;;5093476;28;19924;-71
2021/12/30 00:42:22;;;;;;;;;;;;;;;;;;5095518;28;19988;-70
2021/12/30 00:44:50;;;;;;;;;;;;;;;;;;5098808;28;20027;-71
2021/12/30 00:47:22;;;;;;;;;;;;;;;;;;5094445;28;19925;-70
2021/12/30 00:49:52;;;;;;;;;;;;;;;;;;5105116;28;20365;-70
2021/12/30 00:52:19;;;;;;;;;;;;;;;;;;5097525;28;20312;-70
2021/12/30 00:54:52;;;;;;;;;;;;;;;;;;5094433;28;19979;-70
2021/12/30 00:57:24;;;;;;;;;;;;;;;;;;5091571;28;19928;-70
2021/12/30 00:59:52;;;;;;;;;;;;;;;;;;5096839;28;20046;-71
2021/12/30 01:02:25;;;;;;;;;;;;;;;;;;5095423;28;19935;-70
2021/12/30 01:04:55;;;;;;;;;;;;;;;;;;5094735;28;19928;-70
2021/12/30 01:07:37;;;;;;;;;;;;;;;;;;5100089;28;19923;-70
2021/12/30 01:10:06;;;;;;;;;;;;;;;;;;5092082;28;20765;-70
2021/12/30 01:12:34;;;;;;;;;;;;;;;;;;5096081;28;20019;-70
2021/12/30 01:15:10;;;;;;;;;;;;;;;;;;5099110;28;20371;-70
2021/12/30 01:18:09;;;;;;;;;;;;;;;;;;5097701;28;19924;-70
2021/12/30 01:20:39;;;;;;;;;;;;;;;;;;5092417;28;19995;-71
2021/12/30 01:23:09;;;;;;;;;;;;;;;;;;5094739;28;20022;-70
2021/12/30 01:25:37;;;;;;;;;;;;;;;;;;5095454;28;20015;-70
2021/12/30 01:28:08;;;;;;;;;;;;;;;;;;5097786;28;19996;-70
2021/12/30 01:30:38;;;;;;;;;;;;;;;;;;5098860;28;19995;-71
2021/12/30 01:33:07;;;;;;;;;;;;;;;;;;5095871;28;19924;-70
2021/12/30 01:35:39;;;;;;;;;;;;;;;;;;5093512;28;20338;-70
2021/12/30 01:38:12;;;;;;;;;;;;;;;;;;5100295;28;20018;-71
2021/12/30 01:40:42;;;;;;;;;;;;;;;;;;5097456;28;20582;-70
2021/12/30 01:43:17;;;;;;;;;;;;;;;;;;5095763;28;20140;-70
2021/12/30 01:45:48;;;;;;;;;;;;;;;;;;5090189;28;20007;-70
2021/12/30 01:48:17;;;;;;;;;;;;;;;;;;5095445;28;19924;-70
2021/12/30 01:50:45;;;;;;;;;;;;;;;;;;5095018;28;19947;-70
2021/12/30 01:53:12;;;;;;;;;;;;;;;;;;5096835;28;20061;-70
2021/12/30 01:55:43;;;;;;;;;;;;;;;;;;5102062;28;20003;-70
2021/12/30 01:58:14;;;;;;;;;;;;;;;;;;5095161;28;19950;-70
2021/12/30 02:00:59;;;;;;;;;;;;;;;;;;5072489;28;20346;-70
2021/12/30 02:03:31;;;;;;;;;;;;;;;;;;5098175;28;19935;-71
2021/12/30 02:05:59;;;;;;;;;;;;;;;;;;5098311;28;19928;-70
2021/12/30 02:08:38;;;;;;;;;;;;;;;;;;5096987;28;19943;-70
2021/12/30 02:11:09;;;;;;;;;;;;;;;;;;5093679;28;19924;-70
2021/12/30 02:13:40;;;;;;;;;;;;;;;;;;5092873;28;19942;-70
2021/12/30 02:16:09;;;;;;;;;;;;;;;;;;5085657;28;19981;-70
2021/12/30 02:18:39;;;;;;;;;;;;;;;;;;5075497;28;19924;-70
2021/12/30 02:21:08;;;;;;;;;;;;;;;;;;5085810;28;19924;-70
2021/12/30 02:23:38;;;;;;;;;;;;;;;;;;5072023;28;19931;-70
2021/12/30 02:26:07;;;;;;;;;;;;;;;;;;5088422;28;19936;-70
2021/12/30 02:28:38;;;;;;;;;;;;;;;;;;5081665;28;19924;-70
2021/12/30 02:31:08;;;;;;;;;;;;;;;;;;5086738;28;19957;-70
2021/12/30 02:33:36;;;;;;;;;;;;;;;;;;5086546;28;19946;-70
2021/12/30 02:36:07;;;;;;;;;;;;;;;;;;5066677;28;19929;-70
2021/12/30 02:38:42;;;;;;;;;;;;;;;;;;5081233;28;19924;-70
2021/12/30 02:41:14;;;;;;;;;;;;;;;;;;5077048;28;19958;-70
2021/12/30 02:43:44;;;;;;;;;;;;;;;;;;5086427;28;19924;-70
2021/12/30 02:46:18;;;;;;;;;;;;;;;;;;5080615;28;19925;-70
2021/12/30 02:49:03;;;;;;;;;;;;;;;;;;5084289;28;19938;-70
2021/12/30 02:51:34;;;;;;;;;;;;;;;;;;5084771;28;19924;-70
2021/12/30 02:54:03;;;;;;;;;;;;;;;;;;5090956;28;19935;-70
2021/12/30 02:56:34;;;;;;;;;;;;;;;;;;5078972;28;20442;-70
2021/12/30 02:59:06;;;;;;;;;;;;;;;;;;5086485;28;19936;-70
2021/12/30 03:01:36;;;;;;;;;;;;;;;;;;5089922;28;19931;-70
2021/12/30 03:04:04;;;;;;;;;;;;;;;;;;5088673;28;19928;-70
2021/12/30 03:06:38;;;;;;;;;;;;;;;;;;5100729;28;20484;-70
2021/12/30 03:09:05;;;;;;;;;;;;;;;;;;5104313;28;20007;-70
2021/12/30 03:11:34;;;;;;;;;;;;;;;;;;5101155;28;19935;-70
2021/12/30 03:14:04;;;;;;;;;;;;;;;;;;5080230;28;20006;-70
2021/12/30 03:16:37;;;;;;;;;;;;;;;;;;5095544;28;19924;-70
2021/12/30 03:19:09;;;;;;;;;;;;;;;;;;5071791;28;19963;-71
2021/12/30 03:21:40;;;;;;;;;;;;;;;;;;5082053;28;19987;-70
2021/12/30 03:24:10;;;;;;;;;;;;;;;;;;5080992;28;19955;-70
2021/12/30 03:26:44;;;;;;;;;;;;;;;;;;5052290;28;19925;-70
2021/12/30 03:29:15;;;;;;;;;;;;;;;;;;5071459;28;19979;-70
2021/12/30 03:31:47;;;;;;;;;;;;;;;;;;5082186;28;20370;-70
2021/12/30 03:37:16;;;;;;;;;;;;;;;;;;5073030;28;20042;-70
2021/12/30 03:39:48;;;;;;;;;;;;;;;;;;5073894;28;19928;-70
2021/12/30 03:42:19;;;;;;;;;;;;;;;;;;5068666;28;19932;-70
2021/12/30 03:45:02;;;;;;;;;;;;;;;;;;5057605;28;19925;-70
2021/12/30 03:47:31;;;;;;;;;;;;;;;;;;5070551;28;20346;-70
2021/12/30 03:50:00;;;;;;;;;;;;;;;;;;5078305;28;19925;-70
2021/12/30 03:52:42;;;;;;;;;;;;;;;;;;5062503;28;19927;-70
2021/12/30 03:55:11;;;;;;;;;;;;;;;;;;5081793;28;20419;-70
2021/12/30 03:57:41;;;;;;;;;;;;;;;;;;5066000;28;19935;-70
2021/12/30 04:00:10;;;;;;;;;;;;;;;;;;5058964;28;19924;-70
2021/12/30 04:02:41;;;;;;;;;;;;;;;;;;5059369;28;20398;-70
2021/12/30 04:05:10;;;;;;;;;;;;;;;;;;5065533;28;19924;-70
2021/12/30 04:07:38;;;;;;;;;;;;;;;;;;5067208;28;20030;-70
2021/12/30 04:10:07;;;;;;;;;;;;;;;;;;5078118;28;19928;-70
2021/12/30 04:12:36;;;;;;;;;;;;;;;;;;5073555;28;19940;-70
2021/12/30 04:15:05;;;;;;;;;;;;;;;;;;5073558;28;19931;-70
2021/12/30 04:17:34;;;;;;;;;;;;;;;;;;5075202;28;19981;-70
2021/12/30 04:20:04;;;;;;;;;;;;;;;;;;5088684;28;20389;-71
2021/12/30 04:22:37;;;;;;;;;;;;;;;;;;5091655;28;19928;-70
2021/12/30 04:25:06;;;;;;;;;;;;;;;;;;5096854;28;20465;-70
2021/12/30 04:27:39;;;;;;;;;;;;;;;;;;5088070;28;19928;-70
2021/12/30 04:30:07;;;;;;;;;;;;;;;;;;5085277;28;19928;-70
2021/12/30 04:32:35;;;;;;;;;;;;;;;;;;5089054;28;20518;-70
2021/12/30 04:35:06;;;;;;;;;;;;;;;;;;5090416;28;19985;-70
2021/12/30 04:37:33;;;;;;;;;;;;;;;;;;5089908;28;19980;-70
2021/12/30 04:40:02;;;;;;;;;;;;;;;;;;5090996;28;19924;-71
2021/12/30 04:42:52;;;;;;;;;;;;;;;;;;5090480;28;19942;-70
2021/12/30 04:45:20;;;;;;;;;;;;;;;;;;5090022;28;19924;-70
2021/12/30 04:47:48;;;;;;;;;;;;;;;;;;5088560;28;19932;-70
2021/12/30 04:50:18;;;;;;;;;;;;;;;;;;5087738;28;19936;-70
2021/12/30 04:52:46;;;;;;;;;;;;;;;;;;5082646;28;19935;-70
2021/12/30 04:55:17;;;;;;;;;;;;;;;;;;5091623;28;19923;-70
2021/12/30 04:57:48;;;;;;;;;;;;;;;;;;5086465;28;19932;-70
2021/12/30 05:00:19;;;;;;;;;;;;;;;;;;5065275;28;19928;-70
2021/12/30 05:05:21;;;;;;;;;;;;;;;;;;5083335;28;19939;-70
2021/12/30 05:07:50;;;;;;;;;;;;;;;;;;5083347;28;20299;-70
2021/12/30 05:10:19;;;;;;;;;;;;;;;;;;5083546;28;19943;-70
2021/12/30 05:12:58;;;;;;;;;;;;;;;;;;5088376;28;19928;-70
2021/12/30 05:15:27;;;;;;;;;;;;;;;;;;5089562;28;19924;-70
2021/12/30 05:18:12;;;;;;;;;;;;;;;;;;5072381;28;20008;-70
2021/12/30 05:20:44;;;;;;;;;;;;;;;;;;5070960;28;19924;-71
2021/12/30 05:23:13;;;;;;;;;;;;;;;;;;5070134;28;20481;-70
2021/12/30 05:25:41;;;;;;;;;;;;;;;;;;5054602;28;19924;-70
2021/12/30 05:28:14;;;;;;;;;;;;;;;;;;5063500;28;19925;-70
2021/12/30 05:30:49;;;;;;;;;;;;;;;;;;5066205;28;19929;-70
2021/12/30 05:33:32;;;;;;;;;;;;;;;;;;5068592;28;19946;-70
2021/12/30 05:36:01;;;;;;;;;;;;;;;;;;5075506;28;19959;-70
2021/12/30 05:38:41;;;;;;;;;;;;;;;;;;5074314;28;19924;-70
2021/12/30 05:41:13;;;;;;;;;;;;;;;;;;5066688;28;19931;-70
2021/12/30 05:43:43;;;;;;;;;;;;;;;;;;5048338;28;19935;-71
2021/12/30 05:46:11;;;;;;;;;;;;;;;;;;5066526;28;20448;-70
2021/12/30 05:48:43;;;;;;;;;;;;;;;;;;5050573;28;19928;-70
2021/12/30 05:51:11;;;;;;;;;;;;;;;;;;5067623;28;19947;-70
2021/12/30 05:53:40;;;;;;;;;;;;;;;;;;5076308;28;19936;-70
2021/12/30 05:56:12;;;;;;;;;;;;;;;;;;5062366;28;19925;-70
2021/12/30 05:58:39;;;;;;;;;;;;;;;;;;5070523;28;19924;-70
2021/12/30 06:01:11;;;;;;;;;;;;;;;;;;5068189;28;19932;-70
2021/12/30 06:03:43;;;;;;;;;;;;;;;;;;5076436;28;19929;-70
2021/12/30 06:06:11;;;;;;;;;;;;;;;;;;5060617;28;20011;-70
2021/12/30 06:08:38;;;;;;;;;;;;;;;;;;5068565;28;19924;-70
2021/12/30 06:11:07;;;;;;;;;;;;;;;;;;5065854;28;20099;-70
2021/12/30 06:13:37;;;;;;;;;;;;;;;;;;5076036;28;20008;-70
2021/12/30 06:16:06;;;;;;;;;;;;;;;;;;5077397;28;20263;-70
2021/12/30 06:18:40;;;;;;;;;;;;;;;;;;5074853;28;19958;-69
2021/12/30 06:21:08;;;;;;;;;;;;;;;;;;5086725;28;20693;-70
2021/12/30 06:23:37;;;;;;;;;;;;;;;;;;5054265;28;19939;-70
2021/12/30 06:26:09;;;;;;;;;;;;;;;;;;5034843;28;20159;-70
2021/12/30 06:28:38;;;;;;;;;;;;;;;;;;5063269;28;20012;-70
2021/12/30 06:31:06;;;;;;;;;;;;;;;;;;5066192;28;19925;-70
2021/12/30 06:33:37;;;;;;;;;;;;;;;;;;5066069;28;19924;-70
2021/12/30 06:36:07;;;;;;;;;;;;;;;;;;5071311;28;19932;-71
2021/12/30 06:38:39;;;;;;;;;;;;;;;;;;5072135;28;19932;-70
2021/12/30 06:41:12;;;;;;;;;;;;;;;;;;5076937;28;19925;-70
2021/12/30 06:43:50;;;;;;;;;;;;;;;;;;5068547;28;19974;-70
2021/12/30 06:46:24;;;;;;;;;;;;;;;;;;5069255;28;19973;-70
2021/12/30 06:48:55;;;;;;;;;;;;;;;;;;5065978;28;19932;-70
2021/12/30 06:51:27;;;;;;;;;;;;;;;;;;5067538;28;20449;-71
2021/12/30 06:53:56;;;;;;;;;;;;;;;;;;5074395;28;19928;-70
2021/12/30 06:56:27;;;;;;;;;;;;;;;;;;5069992;28;19936;-70
2021/12/30 06:59:01;;;;;;;;;;;;;;;;;;5077050;28;20529;-70
2021/12/30 07:01:33;;;;;;;;;;;;;;;;;;5076248;28;19960;-70
2021/12/30 07:04:08;;;;;;;;;;;;;;;;;;5074120;28;19925;-70
2021/12/30 07:06:39;;;;;;;;;;;;;;;;;;5069702;28;19932;-69
2021/12/30 07:09:09;;;;;;;;;;;;;;;;;;5071247;28;19924;-69
2021/12/30 07:11:43;;;;;;;;;;;;;;;;;;5073022;28;19929;-69
2021/12/30 07:14:12;;;;;;;;;;;;;;;;;;5072953;28;19932;-69
2021/12/30 07:16:44;;;;;;;;;;;;;;;;;;5074000;28;19924;-69
2021/12/30 07:19:15;;;;;;;;;;;;;;;;;;5073697;28;20082;-70
2021/12/30 07:21:43;;;;;;;;;;;;;;;;;;5100542;28;19935;-71
2021/12/30 07:24:11;;;;;;;;;;;;;;;;;;5089821;28;19931;-71
2021/12/30 07:26:39;;;;;;;;;;;;;;;;;;5083352;28;20293;-71
2021/12/30 07:29:13;;;;;;;;;;;;;;;;;;5090155;28;19923;-71
2021/12/30 07:31:40;;;;;;;;;;;;;;;;;;5093410;28;20003;-68
2021/12/30 07:34:11;;;;;;;;;;;;;;;;;;5080922;28;19924;-67
2021/12/30 07:36:40;;;;;;;;;;;;;;;;;;5091866;28;20134;-69
2021/12/30 07:39:11;;;;;;;;;;;;;;;;;;5085172;28;19935;-70
2021/12/30 07:41:47;;;;;;;;;;;;;;;;;;5092981;28;20269;-69
2021/12/30 07:44:17;;;;;;;;;;;;;;;;;;5076166;28;19932;-70
2021/12/30 07:46:52;;;;;;;;;;;;;;;;;;5093411;28;19924;-71
2021/12/30 07:49:23;;;;;;;;;;;;;;;;;;5082184;28;20393;-70
2021/12/30 07:51:53;;;;;;;;;;;;;;;;;;5092912;28;19932;-71
2021/12/30 07:54:24;;;;;;;;;;;;;;;;;;5082672;28;19924;-71
2021/12/30 07:56:58;;;;;;;;;;;;;;;;;;5083958;28;19924;-70
2021/12/30 07:59:30;;;;;;;;;;;;;;;;;;5067796;28;19928;-70
2021/12/30 08:02:02;;;;;;;;;;;;;;;;;;5101340;28;20003;-71
2021/12/30 08:04:30;;;;;;;;;;;;;;;;;;5082770;28;19928;-71
2021/12/30 08:06:58;;;;;;;;;;;;;;;;;;5090287;28;19988;-68
2021/12/30 08:09:27;;;;;;;;;;;;;;;;;;5053115;28;19924;-68
2021/12/30 08:11:55;;;;;;;;;;;;;;;;;;5087867;28;19996;-71
2021/12/30 08:14:32;;;;;;;;;;;;;;;;;;5083132;28;19928;-71
2021/12/30 08:17:00;;;;;;;;;;;;;;;;;;5080828;28;19932;-69
2021/12/30 08:19:34;;;;;;;;;;;;;;;;;;5074723;28;19924;-69
2021/12/30 08:22:04;;;;;;;;;;;;;;;;;;5085188;28;19924;-68
2021/12/30 08:24:41;;;;;;;;;;;;;;;;;;5083210;28;19985;-68
2021/12/30 08:27:12;;;;;;;;;;;;;;;;;;5081711;28;20683;-68
2021/12/30 08:29:43;;;;;;;;;;;;;;;;;;5084759;28;20420;-68
2021/12/30 08:32:13;;;;;;;;;;;;;;;;;;5084484;28;19924;-69
2021/12/30 08:34:40;;;;;;;;;;;;;;;;;;5072593;28;19929;-69
2021/12/30 08:37:08;;;;;;;;;;;;;;;;;;5083594;28;19932;-72
2021/12/30 08:39:36;;;;;;;;;;;;;;;;;;5086137;28;19948;-71
2021/12/30 08:42:06;;;;;;;;;;;;;;;;;;5085276;28;19977;-70
2021/12/30 08:44:35;;;;;;;;;;;;;;;;;;5079527;28;20553;-69
2021/12/30 08:47:07;;;;;;;;;;;;;;;;;;5080557;28;19932;-68
2021/12/30 08:49:35;;;;;;;;;;;;;;;;;;5080609;28;20055;-68
2021/12/30 08:52:03;;;;;;;;;;;;;;;;;;5085064;28;20433;-70
2021/12/30 08:54:36;;;;;;;;;;;;;;;;;;5082101;28;19930;-69
2021/12/30 08:57:09;;;;;;;;;;;;;;;;;;5080538;28;20007;-69
2021/12/30 08:59:38;;;;;;;;;;;;;;;;;;5085193;28;19945;-69
2021/12/30 09:02:07;;;;;;;;;;;;;;;;;;5066122;28;19924;-70
2021/12/30 09:04:34;;;;;;;;;;;;;;;;;;5080488;28;19935;-70
2021/12/30 09:07:03;;;;;;;;;;;;;;;;;;5081526;28;20409;-69
2021/12/30 09:09:36;;;;;;;;;;;;;;;;;;5082119;28;19932;-69
2021/12/30 09:12:08;;;;;;;;;;;;;;;;;;5087155;28;19932;-68
2021/12/30 09:14:41;;;;;;;;;;;;;;;;;;5078559;28;19989;-68
2021/12/30 09:17:11;;;;;;;;;;;;;;;;;;5080864;28;19972;-69
2021/12/30 09:19:40;;;;;;;;;;;;;;;;;;5073949;28;19928;-69
2021/12/30 09:22:08;;;;;;;;;;;;;;;;;;5078197;28;19924;-68
2021/12/30 09:24:37;;;;;;;;;;;;;;;;;;5080737;28;20365;-67
2021/12/30 09:27:08;;;;;;;;;;;;;;;;;;5082918;28;19969;-70
2021/12/30 09:29:40;;;;;;;;;;;;;;;;;;5080209;28;20587;-70
2021/12/30 09:32:08;;;;;;;;;;;;;;;;;;5083548;28;20292;-68
2021/12/30 09:34:39;;;;;;;;;;;;;;;;;;5071005;28;19924;-68
2021/12/30 09:37:10;;;;;;;;;;;;;;;;;;5085293;28;19924;-68
2021/12/30 09:39:44;;;;;;;;;;;;;;;;;;5081193;28;19927;-69
2021/12/30 09:42:24;;;;;;;;;;;;;;;;;;5081741;28;19924;-70
2021/12/30 09:44:54;;;;;;;;;;;;;;;;;;5081118;28;19924;-70
2021/12/30 09:47:23;;;;;;;;;;;;;;;;;;5081619;28;19955;-71
2021/12/30 09:49:53;;;;;;;;;;;;;;;;;;5063326;28;20003;-70
2021/12/30 09:52:28;;;;;;;;;;;;;;;;;;5080287;28;20518;-69
2021/12/30 09:55:00;;;;;;;;;;;;;;;;;;5089551;28;20234;-69
2021/12/30 09:57:32;;;;;;;;;;;;;;;;;;5084000;28;19928;-69
2021/12/30 10:00:03;;;;;;;;;;;;;;;;;;5080601;28;19932;-68
2021/12/30 10:02:33;;;;;;;;;;;;;;;;;;5081607;28;19935;-68
2021/12/30 10:05:05;;;;;;;;;;;;;;;;;;5081353;28;20381;-68
2021/12/30 10:07:34;;;;;;;;;;;;;;;;;;5070145;28;19935;-68
2021/12/30 10:10:03;;;;;;;;;;;;;;;;;;5072042;28;19935;-67
2021/12/30 10:12:33;;;;;;;;;;;;;;;;;;5077796;28;19935;-69
2021/12/30 10:15:03;;;;;;;;;;;;;;;;;;5089822;28;19927;-69
2021/12/30 10:17:36;;;;;;;;;;;;;;;;;;5093067;28;19931;-69
2021/12/30 10:20:06;;;;;;;;;;;;;;;;;;5086867;28;20585;-69
2021/12/30 10:22:35;;;;;;;;;;;;;;;;;;5083148;28;19932;-70
2021/12/30 10:25:03;;;;;;;;;;;;;;;;;;5081258;28;19997;-69
2021/12/30 10:27:35;;;;;;;;;;;;;;;;;;5084046;28;19951;-70
2021/12/30 10:30:05;;;;;;;;;;;;;;;;;;5083581;28;19935;-70
2021/12/30 10:32:34;;;;;;;;;;;;;;;;;;5076421;28;20605;-71
2021/12/30 10:35:01;;;;;;;;;;;;;;;;;;5077619;28;19938;-71
2021/12/30 10:37:37;;;;;;;;;;;;;;;;;;5088190;28;19924;-69
2021/12/30 10:40:06;;;;;;;;;;;;;;;;;;5084533;28;20403;-68
2021/12/30 10:42:37;;;;;;;;;;;;;;;;;;5088616;28;19957;-68
2021/12/30 10:45:09;;;;;;;;;;;;;;;;;;5082382;28;20510;-70
2021/12/30 10:47:37;;;;;;;;;;;;;;;;;;5082943;28;19924;-70
2021/12/30 10:50:06;;;;;;;;;;;;;;;;;;5071007;28;20294;-70
2021/12/30 10:52:34;;;;;;;;;;;;;;;;;;5079987;28;19939;-69
2021/12/30 10:55:05;;;;;;;;;;;;;;;;;;5084712;28;19931;-70
2021/12/30 10:57:32;;;;;;;;;;;;;;;;;;5087191;28;19930;-71
2021/12/30 11:00:03;;;;;;;;;;;;;;;;;;5079968;28;19935;-69
2021/12/30 11:02:37;;;;;;;;;;;;;;;;;;5084953;28;19934;-69
2021/12/30 11:05:06;;;;;;;;;;;;;;;;;;5084190;28;19928;-67
2021/12/30 11:07:37;;;;;;;;;;;;;;;;;;5082339;28;19932;-67
2021/12/30 11:10:05;;;;;;;;;;;;;;;;;;5089610;28;19930;-71
2021/12/30 11:12:32;;;;;;;;;;;;;;;;;;5081107;28;19981;-69
2021/12/30 11:15:06;;;;;;;;;;;;;;;;;;5066876;28;19935;-65
2021/12/30 11:17:36;;;;;;;;;;;;;;;;;;5072392;28;20452;-68
2021/12/30 11:20:09;;;;;;;;;;;;;;;;;;5071223;28;19986;-70
2021/12/30 11:22:40;;;;;;;;;;;;;;;;;;5076039;28;19924;-69
2021/12/30 11:25:11;;;;;;;;;;;;;;;;;;5084264;28;20337;-69
2021/12/30 11:27:40;;;;;;;;;;;;;;;;;;5076471;28;20361;-68
2021/12/30 11:30:12;;;;;;;;;;;;;;;;;;5086352;28;19928;-65
2021/12/30 11:32:47;;;;;;;;;;;;;;;;;;5081942;28;19924;-65
2021/12/30 11:35:21;;;;;;;;;;;;;;;;;;5085193;28;20207;-65
2021/12/30 11:38:03;;;;;;;;;;;;;;;;;;5081225;28;20011;-65
2021/12/30 11:40:34;;;;;;;;;;;;;;;;;;5075836;28;19924;-65
2021/12/30 11:43:16;;;;;;;;;;;;;;;;;;5071416;28;20017;-65
2021/12/30 11:45:43;;;;;;;;;;;;;;;;;;5056720;28;19929;-66
2021/12/30 11:48:13;;;;;;;;;;;;;;;;;;5083915;28;20483;-65
2021/12/30 11:50:41;;;;;;;;;;;;;;;;;;5084763;28;20294;-67
2021/12/30 11:53:12;;;;;;;;;;;;;;;;;;5066280;28;19939;-66
2021/12/30 11:55:43;;;;;;;;;;;;;;;;;;5086872;28;19930;-65
2021/12/30 11:58:13;;;;;;;;;;;;;;;;;;5082551;28;19928;-65
2021/12/30 12:00:44;;;;;;;;;;;;;;;;;;5085534;28;20654;-65
2021/12/30 12:03:16;;;;;;;;;;;;;;;;;;5085660;28;19929;-66
2021/12/30 12:05:44;;;;;;;;;;;;;;;;;;5082357;28;19924;-66
2021/12/30 12:08:14;;;;;;;;;;;;;;;;;;5082557;28;19939;-66
2021/12/30 12:10:45;;;;;;;;;;;;;;;;;;5084601;28;20527;-65
2021/12/30 12:13:13;;;;;;;;;;;;;;;;;;5073548;28;19989;-65
2021/12/30 12:15:44;;;;;;;;;;;;;;;;;;5084911;28;19928;-66
2021/12/30 12:18:14;;;;;;;;;;;;;;;;;;5083675;28;19924;-66
2021/12/30 12:20:41;;;;;;;;;;;;;;;;;;5063018;28;20575;-66
2021/12/30 12:23:11;;;;;;;;;;;;;;;;;;5062039;28;19934;-66
2021/12/30 12:25:43;;;;;;;;;;;;;;;;;;5065405;28;20012;-66
2021/12/30 12:28:16;;;;;;;;;;;;;;;;;;5059123;28;20258;-65
2021/12/30 12:30:43;;;;;;;;;;;;;;;;;;5051666;28;19929;-66
2021/12/30 12:33:12;;;;;;;;;;;;;;;;;;5062949;28;20289;-65
2021/12/30 12:35:42;;;;;;;;;;;;;;;;;;5063571;28;19936;-68
2021/12/30 12:38:11;;;;;;;;;;;;;;;;;;5047251;28;19958;-69
2021/12/30 12:40:42;;;;;;;;;;;;;;;;;;5061829;28;20459;-69
2021/12/30 12:43:10;;;;;;;;;;;;;;;;;;5058602;28;19932;-67
2021/12/30 12:45:44;;;;;;;;;;;;;;;;;;5056313;28;21105;-73
2021/12/30 12:48:21;;;;;;;;;;;;;;;;;;5057765;28;19928;-71
2021/12/30 12:50:49;;;;;;;;;;;;;;;;;;5052815;28;19950;-70
2021/12/30 12:53:21;;;;;;;;;;;;;;;;;;5061024;28;19932;-70
2021/12/30 12:55:52;;;;;;;;;;;;;;;;;;5039699;28;20526;-66
2021/12/30 12:58:21;;;;;;;;;;;;;;;;;;5031487;28;19936;-66
2021/12/30 13:00:51;;;;;;;;;;;;;;;;;;5058238;28;19932;-67
2021/12/30 13:03:22;;;;;;;;;;;;;;;;;;5059517;28;19938;-67
2021/12/30 13:05:51;;;;;;;;;;;;;;;;;;5059850;28;19943;-66
2021/12/30 13:08:19;;;;;;;;;;;;;;;;;;5060583;28;19928;-67
2021/12/30 13:10:47;;;;;;;;;;;;;;;;;;5063074;28;19924;-66
2021/12/30 13:13:20;;;;;;;;;;;;;;;;;;5061609;28;19989;-67
2021/12/30 13:15:50;;;;;;;;;;;;;;;;;;5057680;28;20197;-67
2021/12/30 13:18:18;;;;;;;;;;;;;;;;;;5053991;28;19925;-67
2021/12/30 13:20:50;;;;;;;;;;;;;;;;;;5072138;28;19962;-70
2021/12/30 13:23:19;;;;;;;;;;;;;;;;;;5068479;28;19934;-71
2021/12/30 13:25:50;;;;;;;;;;;;;;;;;;5088864;28;19943;-70
2021/12/30 13:28:22;;;;;;;;;;;;;;;;;;5081737;28;19996;-68
2021/12/30 13:30:51;;;;;;;;;;;;;;;;;;5083309;28;20007;-68
2021/12/30 13:33:21;;;;;;;;;;;;;;;;;;5076447;28;19928;-69
2021/12/30 13:35:52;;;;;;;;;;;;;;;;;;5089866;28;19935;-70
2021/12/30 13:38:23;;;;;;;;;;;;;;;;;;5084904;28;20078;-66
2021/12/30 13:40:51;;;;;;;;;;;;;;;;;;5078860;28;19936;-66
2021/12/30 13:43:23;;;;;;;;;;;;;;;;;;5059107;28;19935;-66
2021/12/30 13:45:54;;;;;;;;;;;;;;;;;;5079013;28;19943;-67
2021/12/30 13:48:38;;;;;;;;;;;;;;;;;;5062928;28;20025;-67
2021/12/30 13:51:07;;;;;;;;;;;;;;;;;;5070775;28;19928;-67
2021/12/30 13:53:38;;;;;;;;;;;;;;;;;;5083939;28;19985;-67
2021/12/30 13:56:08;;;;;;;;;;;;;;;;;;5084885;28;19929;-66
2021/12/30 13:58:36;;;;;;;;;;;;;;;;;;5077685;28;20045;-66
2021/12/30 14:01:26;;;;;;;;;;;;;;;;;;5081810;28;19958;-67
2021/12/30 14:03:57;;;;;;;;;;;;;;;;;;5080236;28;19932;-67
2021/12/30 14:06:25;;;;;;;;;;;;;;;;;;5061469;28;19924;-67
2021/12/30 14:08:54;;;;;;;;;;;;;;;;;;5080786;28;19932;-67
2021/12/30 14:11:23;;;;;;;;;;;;;;;;;;5081157;28;20021;-67
2021/12/30 14:13:59;;;;;;;;;;;;;;;;;;5081890;28;19932;-67
2021/12/30 14:16:31;;;;;;;;;;;;;;;;;;5062119;28;20024;-66
2021/12/30 14:19:01;;;;;;;;;;;;;;;;;;5087065;28;19923;-66
2021/12/30 14:21:31;;;;;;;;;;;;;;;;;;5085270;28;19924;-66
2021/12/30 14:24:01;;;;;;;;;;;;;;;;;;5076037;28;20511;-66
2021/12/30 14:26:36;;;;;;;;;;;;;;;;;;5070372;28;20004;-66
2021/12/30 14:29:04;;;;;;;;;;;;;;;;;;5082455;28;19936;-66
2021/12/30 14:31:38;;;;;;;;;;;;;;;;;;5074279;28;20353;-66
2021/12/30 14:34:07;;;;;;;;;;;;;;;;;;5084598;28;19923;-71
2021/12/30 14:36:36;;;;;;;;;;;;;;;;;;5076518;28;19924;-66
2021/12/30 14:39:04;;;;;;;;;;;;;;;;;;5076488;28;19933;-66
2021/12/30 14:41:35;;;;;;;;;;;;;;;;;;5084508;28;19924;-66
2021/12/30 14:44:04;;;;;;;;;;;;;;;;;;5082271;28;19924;-66
2021/12/30 14:46:33;;;;;;;;;;;;;;;;;;5085150;28;19939;-66
2021/12/30 14:49:05;;;;;;;;;;;;;;;;;;5087994;28;19931;-66
2021/12/30 14:51:33;;;;;;;;;;;;;;;;;;5080955;28;20016;-66
2021/12/30 14:54:02;;;;;;;;;;;;;;;;;;5083309;28;19932;-66
2021/12/30 14:56:33;;;;;;;;;;;;;;;;;;5079218;28;19928;-67
2021/12/30 14:59:24;;;;;;;;;;;;;;;;;;5087925;28;19932;-68
2021/12/30 15:01:59;;;;;;;;;;;;;;;;;;5088494;28;20346;-68
2021/12/30 15:04:28;;;;;;;;;;;;;;;;;;5080524;28;20494;-68
2021/12/30 15:06:56;;;;;;;;;;;;;;;;;;5083536;28;19992;-68
2021/12/30 15:09:25;;;;;;;;;;;;;;;;;;5086402;28;20045;-67
2021/12/30 15:11:56;;;;;;;;;;;;;;;;;;5084107;28;20619;-67
2021/12/30 15:14:25;;;;;;;;;;;;;;;;;;5082040;28;19932;-67
2021/12/30 15:16:54;;;;;;;;;;;;;;;;;;5078250;28;20397;-68
2021/12/30 15:19:25;;;;;;;;;;;;;;;;;;5084710;28;20503;-68
2021/12/30 15:21:56;;;;;;;;;;;;;;;;;;5083847;28;19935;-68
2021/12/30 15:24:26;;;;;;;;;;;;;;;;;;5069113;28;19935;-67
2021/12/30 15:26:55;;;;;;;;;;;;;;;;;;5093358;28;20417;-68
2021/12/30 15:29:28;;;;;;;;;;;;;;;;;;5073954;28;20278;-69
2021/12/30 15:31:58;;;;;;;;;;;;;;;;;;5096202;28;19939;-68
2021/12/30 15:34:30;;;;;;;;;;;;;;;;;;5080204;28;19932;-68
2021/12/30 15:36:59;;;;;;;;;;;;;;;;;;5096470;28;20011;-68
2021/12/30 15:39:30;;;;;;;;;;;;;;;;;;5072188;28;19924;-68
2021/12/30 15:42:02;;;;;;;;;;;;;;;;;;5095429;28;19924;-68
2021/12/30 15:44:31;;;;;;;;;;;;;;;;;;5083638;28;19984;-68
2021/12/30 15:47:00;;;;;;;;;;;;;;;;;;5092741;28;20301;-67
2021/12/30 15:49:34;;;;;;;;;;;;;;;;;;5070324;28;20293;-67
2021/12/30 15:52:05;;;;;;;;;;;;;;;;;;5095603;28;19924;-68
2021/12/30 15:54:34;;;;;;;;;;;;;;;;;;5081276;28;20424;-68
2021/12/30 15:57:04;;;;;;;;;;;;;;;;;;5086536;28;19931;-68
2021/12/30 15:59:35;;;;;;;;;;;;;;;;;;5087214;28;19927;-68
2021/12/30 16:02:03;;;;;;;;;;;;;;;;;;5088342;28;20019;-67
2021/12/30 16:04:31;;;;;;;;;;;;;;;;;;5087687;28;20014;-66
2021/12/30 16:07:04;;;;;;;;;;;;;;;;;;5086898;28;19935;-67
2021/12/30 16:09:32;;;;;;;;;;;;;;;;;;5080059;28;19996;-67
2021/12/30 16:12:01;;;;;;;;;;;;;;;;;;5076298;28;19977;-67
2021/12/30 16:14:31;;;;;;;;;;;;;;;;;;5082842;28;20487;-67
2021/12/30 16:16:58;;;;;;;;;;;;;;;;;;5087106;28;19928;-67
2021/12/30 16:19:38;;;;;;;;;;;;;;;;;;5083444;28;19924;-67
2021/12/30 16:22:06;;;;;;;;;;;;;;;;;;5083395;28;19992;-66
2021/12/30 16:24:41;;;;;;;;;;;;;;;;;;5073583;28;19928;-66
2021/12/30 16:27:14;;;;;;;;;;;;;;;;;;5083360;28;20402;-67
2021/12/30 16:29:45;;;;;;;;;;;;;;;;;;5084489;28;20320;-65
2021/12/30 16:32:13;;;;;;;;;;;;;;;;;;5081380;28;19954;-66
2021/12/30 16:34:43;;;;;;;;;;;;;;;;;;5080976;28;20185;-67
2021/12/30 16:37:12;;;;;;;;;;;;;;;;;;5081662;28;19963;-67
2021/12/30 16:39:44;;;;;;;;;;;;;;;;;;5085750;28;19951;-67
2021/12/30 16:42:16;;;;;;;;;;;;;;;;;;5084970;28;19924;-67
2021/12/30 16:44:47;;;;;;;;;;;;;;;;;;5083971;28;19924;-67
2021/12/30 16:47:19;;;;;;;;;;;;;;;;;;5086768;28;20269;-67
2021/12/30 16:49:50;;;;;;;;;;;;;;;;;;5070424;28;19928;-67
2021/12/30 16:52:18;;;;;;;;;;;;;;;;;;5082282;28;19997;-67
2021/12/30 16:54:49;;;;;;;;;;;;;;;;;;5081676;28;20322;-67
2021/12/30 16:57:19;;;;;;;;;;;;;;;;;;5072612;28;19982;-67
2021/12/30 16:59:47;;;;;;;;;;;;;;;;;;5072560;28;19993;-67
2021/12/30 17:02:16;;;;;;;;;;;;;;;;;;5082496;28;20338;-67
2021/12/30 17:04:48;;;;;;;;;;;;;;;;;;5077503;28;19935;-68
2021/12/30 17:07:20;;;;;;;;;;;;;;;;;;5077777;28;19925;-69
2021/12/30 17:09:54;;;;;;;;;;;;;;;;;;5081611;28;19933;-69
2021/12/30 17:12:25;;;;;;;;;;;;;;;;;;5084350;28;19928;-69
2021/12/30 17:14:57;;;;;;;;;;;;;;;;;;5086652;28;19923;-69
2021/12/30 17:17:26;;;;;;;;;;;;;;;;;;5082025;28;19938;-68